sensor_id;sensor_type;location;lat;lon;timestamp;pressure;altitude;pressure_sealevel;temperature;humidity
28167;BME280;15455;53.376;-6.262;2022-11-10T00:02:16;100315.50;;;12.18;100.00
28167;BME280;15455;53.376;-6.262;2022-11-10T00:05:21;100324.25;;;12.18;100.00
28167;BME280;15455;53.376;-6.262;2022-11-10T00:08:25;100331.22;;;12.19;100.00
28167;BME280;15455;53.376;-6.262;2022-11-10T00:11:30;100342.59;;;12.16;100.00
28167;BME280;15455;53.376;-6.262;2022-11-10T00:14:34;100342.63;;;12.13;100.00
28167;BME280;15455;53.376;-6.262;2022-11-10T00:18:00;100340.94;;;12.11;100.00
28167;BME280;15455;53.376;-6.262;2022-11-10T00:21:07;100336.63;;;12.07;100.00
28167;BME280;15455;53.376;-6.262;2022-11-10T00:24:12;100341.06;;;12.03;100.00
28167;BME280;15455;53.376;-6.262;2022-11-10T00:27:16;100331.47;;;12.02;100.00
28167;BME280;15455;53.376;-6.262;2022-11-10T00:30:21;100330.63;;;11.98;100.00
28167;BME280;15455;53.376;-6.262;2022-11-10T00:33:25;100343.81;;;11.91;100.00
28167;BME280;15455;53.376;-6.262;2022-11-10T00:36:29;100359.53;;;11.88;100.00
28167;BME280;15455;53.376;-6.262;2022-11-10T00:39:34;100359.53;;;11.89;100.00
28167;BME280;15455;53.376;-6.262;2022-11-10T00:42:38;100376.94;;;11.90;100.00
28167;BME280;15455;53.376;-6.262;2022-11-10T00:45:42;100363.75;;;11.99;100.00
28167;BME280;15455;53.376;-6.262;2022-11-10T00:48:47;100380.28;;;12.03;100.00
28167;BME280;15455;53.376;-6.262;2022-11-10T00:51:52;100379.34;;;12.06;100.00
28167;BME280;15455;53.376;-6.262;2022-11-10T00:54:57;100381.06;;;12.08;100.00
28167;BME280;15455;53.376;-6.262;2022-11-10T00:58:01;100388.00;;;12.11;100.00
28167;BME280;15455;53.376;-6.262;2022-11-10T01:01:05;100381.91;;;12.12;100.00
28167;BME280;15455;53.376;-6.262;2022-11-10T01:04:10;100378.22;;;12.25;100.00
28167;BME280;15455;53.376;-6.262;2022-11-10T01:07:15;100375.50;;;12.30;100.00
28167;BME280;15455;53.376;-6.262;2022-11-10T01:10:19;100365.88;;;12.33;100.00
28167;BME280;15455;53.376;-6.262;2022-11-10T01:13:23;100355.34;;;12.37;100.00
28167;BME280;15455;53.376;-6.262;2022-11-10T01:16:30;100378.81;;;12.41;100.00
28167;BME280;15455;53.376;-6.262;2022-11-10T01:19:35;100383.16;;;12.44;100.00
28167;BME280;15455;53.376;-6.262;2022-11-10T01:22:39;100364.72;;;12.50;100.00
28167;BME280;15455;53.376;-6.262;2022-11-10T01:25:44;100392.66;;;12.49;100.00
28167;BME280;15455;53.376;-6.262;2022-11-10T01:28:49;100383.94;;;12.49;100.00
28167;BME280;15455;53.376;-6.262;2022-11-10T01:31:54;100376.22;;;12.41;100.00
28167;BME280;15455;53.376;-6.262;2022-11-10T01:34:58;100372.88;;;12.31;100.00
28167;BME280;15455;53.376;-6.262;2022-11-10T01:38:02;100377.38;;;12.22;100.00
28167;BME280;15455;53.376;-6.262;2022-11-10T01:41:10;100381.88;;;12.13;100.00
28167;BME280;15455;53.376;-6.262;2022-11-10T01:44:19;100385.41;;;12.09;100.00
28167;BME280;15455;53.376;-6.262;2022-11-10T01:47:24;100375.94;;;12.02;100.00
28167;BME280;15455;53.376;-6.262;2022-11-10T01:50:39;100400.47;;;11.93;100.00
28167;BME280;15455;53.376;-6.262;2022-11-10T01:53:48;100394.47;;;11.84;100.00
28167;BME280;15455;53.376;-6.262;2022-11-10T01:56:57;100403.13;;;11.86;100.00
28167;BME280;15455;53.376;-6.262;2022-11-10T02:00:04;100403.13;;;11.86;100.00
28167;BME280;15455;53.376;-6.262;2022-11-10T02:03:24;100400.66;;;11.76;100.00
28167;BME280;15455;53.376;-6.262;2022-11-10T02:06:34;100408.59;;;11.70;100.00
28167;BME280;15455;53.376;-6.262;2022-11-10T02:09:40;100408.53;;;11.73;100.00
28167;BME280;15455;53.376;-6.262;2022-11-10T02:12:46;100412.00;;;11.75;100.00
28167;BME280;15455;53.376;-6.262;2022-11-10T02:15:51;100413.69;;;11.79;100.00
28167;BME280;15455;53.376;-6.262;2022-11-10T02:18:56;100407.41;;;11.93;100.00
28167;BME280;15455;53.376;-6.262;2022-11-10T02:22:00;100419.59;;;11.95;100.00
28167;BME280;15455;53.376;-6.262;2022-11-10T02:25:05;100409.16;;;11.92;100.00
28167;BME280;15455;53.376;-6.262;2022-11-10T02:28:10;100402.19;;;11.94;100.00
28167;BME280;15455;53.376;-6.262;2022-11-10T02:31:14;100397.75;;;11.99;100.00
28167;BME280;15455;53.376;-6.262;2022-11-10T02:34:18;100388.13;;;12.03;100.00
28167;BME280;15455;53.376;-6.262;2022-11-10T02:37:22;100396.81;;;12.05;100.00
28167;BME280;15455;53.376;-6.262;2022-11-10T02:40:27;100395.03;;;12.07;100.00
28167;BME280;15455;53.376;-6.262;2022-11-10T02:43:31;100383.59;;;12.14;100.00
28167;BME280;15455;53.376;-6.262;2022-11-10T02:46:36;100396.56;;;12.22;100.00
28167;BME280;15455;53.376;-6.262;2022-11-10T02:49:40;100392.97;;;12.29;100.00
28167;BME280;15455;53.376;-6.262;2022-11-10T02:52:44;100402.53;;;12.30;100.00
28167;BME280;15455;53.376;-6.262;2022-11-10T02:55:49;100401.59;;;12.34;100.00
28167;BME280;15455;53.376;-6.262;2022-11-10T02:58:53;100401.53;;;12.41;100.00
28167;BME280;15455;53.376;-6.262;2022-11-10T03:01:57;100401.53;;;12.41;100.00
28167;BME280;15455;53.376;-6.262;2022-11-10T03:05:01;100405.97;;;12.36;100.00
28167;BME280;15455;53.376;-6.262;2022-11-10T03:08:05;100404.13;;;12.42;100.00
28167;BME280;15455;53.376;-6.262;2022-11-10T03:11:09;100389.22;;;12.46;100.00
28167;BME280;15455;53.376;-6.262;2022-11-10T03:14:14;100393.66;;;12.42;100.00
28167;BME280;15455;53.376;-6.262;2022-11-10T03:17:18;100390.06;;;12.46;100.00
28167;BME280;15455;53.376;-6.262;2022-11-10T03:20:22;100383.19;;;12.42;100.00
28167;BME280;15455;53.376;-6.262;2022-11-10T03:23:26;100389.25;;;12.44;100.00
28167;BME280;15455;53.376;-6.262;2022-11-10T03:26:30;100390.94;;;12.47;100.00
28167;BME280;15455;53.376;-6.262;2022-11-10T03:29:34;100392.66;;;12.49;100.00
28167;BME280;15455;53.376;-6.262;2022-11-10T03:32:39;100389.09;;;12.54;100.00
28167;BME280;15455;53.376;-6.262;2022-11-10T03:35:44;100394.31;;;12.54;100.00
28167;BME280;15455;53.376;-6.262;2022-11-10T03:38:48;100402.16;;;12.54;100.00
28167;BME280;15455;53.376;-6.262;2022-11-10T03:41:52;100400.44;;;12.54;100.00
28167;BME280;15455;53.376;-6.262;2022-11-10T03:44:56;100394.38;;;12.50;100.00
28167;BME280;15455;53.376;-6.262;2022-11-10T03:48:01;100387.41;;;12.51;100.00
28167;BME280;15455;53.376;-6.262;2022-11-10T03:51:05;100385.59;;;12.55;100.00
28167;BME280;15455;53.376;-6.262;2022-11-10T03:54:09;100375.22;;;12.48;100.00
28167;BME280;15455;53.376;-6.262;2022-11-10T03:57:14;100370.03;;;12.45;100.00
28167;BME280;15455;53.376;-6.262;2022-11-10T04:00:19;100392.84;;;12.37;100.00
28167;BME280;15455;53.376;-6.262;2022-11-10T04:03:23;100402.50;;;12.32;100.00
28167;BME280;15455;53.376;-6.262;2022-11-10T04:06:28;100406.16;;;12.22;100.00
28167;BME280;15455;53.376;-6.262;2022-11-10T04:09:51;100411.53;;;12.12;100.00
28167;BME280;15455;53.376;-6.262;2022-11-10T04:12:55;100420.22;;;12.13;100.00
28167;BME280;15455;53.376;-6.262;2022-11-10T04:16:18;100412.41;;;12.11;100.00
28167;BME280;15455;53.376;-6.262;2022-11-10T04:19:24;100427.19;;;12.15;100.00
28167;BME280;15455;53.376;-6.262;2022-11-10T04:22:28;100414.91;;;12.21;100.00
28167;BME280;15455;53.376;-6.262;2022-11-10T04:25:58;100420.09;;;12.24;100.00
28167;BME280;15455;53.376;-6.262;2022-11-10T04:29:21;100427.03;;;12.25;100.00
28167;BME280;15455;53.376;-6.262;2022-11-10T04:32:26;100414.81;;;12.27;100.00
28167;BME280;15455;53.376;-6.262;2022-11-10T04:35:30;100408.66;;;12.31;100.00
28167;BME280;15455;53.376;-6.262;2022-11-10T04:38:34;100392.16;;;12.26;100.00
28167;BME280;15455;53.376;-6.262;2022-11-10T04:41:39;100418.34;;;12.23;100.00
28167;BME280;15455;53.376;-6.262;2022-11-10T04:44:43;100415.69;;;12.26;100.00
28167;BME280;15455;53.376;-6.262;2022-11-10T04:47:47;100406.16;;;12.22;100.00
28167;BME280;15455;53.376;-6.262;2022-11-10T04:50:52;100420.06;;;12.25;100.00
28167;BME280;15455;53.376;-6.262;2022-11-10T04:53:56;100411.22;;;12.34;100.00
28167;BME280;15455;53.376;-6.262;2022-11-10T04:57:00;100417.31;;;12.34;100.00
28167;BME280;15455;53.376;-6.262;2022-11-10T05:00:05;100409.28;;;12.47;100.00
28167;BME280;15455;53.376;-6.262;2022-11-10T05:03:11;100414.53;;;12.45;100.00
28167;BME280;15455;53.376;-6.262;2022-11-10T05:06:16;100403.97;;;12.51;100.00
28167;BME280;15455;53.376;-6.262;2022-11-10T05:09:21;100417.88;;;12.54;100.00
28167;BME280;15455;53.376;-6.262;2022-11-10T05:12:25;100413.31;;;12.66;100.00
28167;BME280;15455;53.376;-6.262;2022-11-10T05:15:30;100400.09;;;12.74;100.00
28167;BME280;15455;53.376;-6.262;2022-11-10T05:18:35;100417.50;;;12.78;100.00
28167;BME280;15455;53.376;-6.262;2022-11-10T05:21:39;100414.84;;;12.80;100.00
28167;BME280;15455;53.376;-6.262;2022-11-10T05:24:44;100415.63;;;12.85;100.00
28167;BME280;15455;53.376;-6.262;2022-11-10T05:27:48;100420.81;;;12.88;100.00
28167;BME280;15455;53.376;-6.262;2022-11-10T05:30:52;100424.31;;;12.89;100.00
28167;BME280;15455;53.376;-6.262;2022-11-10T05:33:56;100419.13;;;12.85;100.00
28167;BME280;15455;53.376;-6.262;2022-11-10T05:37:01;100421.81;;;12.79;100.00
28167;BME280;15455;53.376;-6.262;2022-11-10T05:40:06;100431.53;;;12.74;100.00
28167;BME280;15455;53.376;-6.262;2022-11-10T05:43:10;100418.41;;;12.76;100.00
28167;BME280;15455;53.376;-6.262;2022-11-10T05:46:14;100427.00;;;12.82;100.00
28167;BME280;15455;53.376;-6.262;2022-11-10T05:49:19;100414.81;;;12.81;100.00
28167;BME280;15455;53.376;-6.262;2022-11-10T05:52:23;100421.91;;;12.75;100.00
28167;BME280;15455;53.376;-6.262;2022-11-10T05:55:28;100413.19;;;12.74;100.00
28167;BME280;15455;53.376;-6.262;2022-11-10T05:58:32;100402.63;;;12.79;100.00
28167;BME280;15455;53.376;-6.262;2022-11-10T06:01:36;100402.63;;;12.79;100.00
28167;BME280;15455;53.376;-6.262;2022-11-10T06:04:41;100415.69;;;12.82;100.00
28167;BME280;15455;53.376;-6.262;2022-11-10T06:07:45;100390.41;;;12.79;100.00
28167;BME280;15455;53.376;-6.262;2022-11-10T06:10:50;100394.88;;;12.74;100.00
28167;BME280;15455;53.376;-6.262;2022-11-10T06:13:54;100407.06;;;12.75;100.00
28167;BME280;15455;53.376;-6.262;2022-11-10T06:16:58;100396.56;;;12.77;100.00
28167;BME280;15455;53.376;-6.262;2022-11-10T06:20:02;100407.03;;;12.78;100.00
28167;BME280;15455;53.376;-6.262;2022-11-10T06:23:11;100395.69;;;12.76;100.00
28167;BME280;15455;53.376;-6.262;2022-11-10T06:26:16;100391.41;;;12.72;100.00
28167;BME280;15455;53.376;-6.262;2022-11-10T06:29:20;100392.19;;;12.77;100.00
28167;BME280;15455;53.376;-6.262;2022-11-10T06:32:32;100397.34;;;12.82;100.00
28167;BME280;15455;53.376;-6.262;2022-11-10T06:35:36;100402.44;;;12.90;100.00
28167;BME280;15455;53.376;-6.262;2022-11-10T06:38:41;100386.03;;;12.81;100.00
28167;BME280;15455;53.376;-6.262;2022-11-10T06:41:45;100379.06;;;12.79;100.00
28167;BME280;15455;53.376;-6.262;2022-11-10T06:44:50;100395.75;;;12.73;100.00
28167;BME280;15455;53.376;-6.262;2022-11-10T06:48:13;100394.78;;;12.79;100.00
28167;BME280;15455;53.376;-6.262;2022-11-10T06:51:17;100387.88;;;12.75;100.00
28167;BME280;15455;53.376;-6.262;2022-11-10T06:54:22;100402.78;;;12.69;100.00
28167;BME280;15455;53.376;-6.262;2022-11-10T06:57:26;100404.50;;;12.72;100.00
28167;BME280;15455;53.376;-6.262;2022-11-10T07:00:30;100397.53;;;12.73;100.00
28167;BME280;15455;53.376;-6.262;2022-11-10T07:03:34;100410.63;;;12.71;100.00
28167;BME280;15455;53.376;-6.262;2022-11-10T07:06:56;100428.84;;;12.77;100.00
28167;BME280;15455;53.376;-6.262;2022-11-10T07:10:01;100433.00;;;12.91;100.00
28167;BME280;15455;53.376;-6.262;2022-11-10T07:13:10;100433.66;;;13.02;100.00
28167;BME280;15455;53.376;-6.262;2022-11-10T07:16:15;100437.91;;;13.09;100.00
28167;BME280;15455;53.376;-6.262;2022-11-10T07:19:27;100430.00;;;13.12;100.00
28167;BME280;15455;53.376;-6.262;2022-11-10T07:22:31;100412.53;;;13.11;100.00
28167;BME280;15455;53.376;-6.262;2022-11-10T07:25:36;100419.59;;;13.08;100.00
28167;BME280;15455;53.376;-6.262;2022-11-10T07:28:40;100446.78;;;13.02;100.00
28167;BME280;15455;53.376;-6.262;2022-11-10T07:31:45;100461.59;;;13.03;100.00
28167;BME280;15455;53.376;-6.262;2022-11-10T07:34:49;100482.56;;;13.03;100.00
28167;BME280;15455;53.376;-6.262;2022-11-10T07:37:55;100468.56;;;13.04;100.00
28167;BME280;15455;53.376;-6.262;2022-11-10T07:41:00;100451.91;;;13.07;100.00
28167;BME280;15455;53.376;-6.262;2022-11-10T07:44:04;100442.31;;;13.09;100.00
28167;BME280;15455;53.376;-6.262;2022-11-10T07:47:09;100430.91;;;13.10;100.00
28167;BME280;15455;53.376;-6.262;2022-11-10T07:50:13;100429.19;;;13.09;100.00
28167;BME280;15455;53.376;-6.262;2022-11-10T07:53:19;100454.47;;;13.11;100.00
28167;BME280;15455;53.376;-6.262;2022-11-10T07:56:24;100455.25;;;13.16;100.00
28167;BME280;15455;53.376;-6.262;2022-11-10T07:59:29;100461.31;;;13.18;100.00
28167;BME280;15455;53.376;-6.262;2022-11-10T08:02:33;100450.81;;;13.20;100.00
28167;BME280;15455;53.376;-6.262;2022-11-10T08:05:38;100458.63;;;13.21;100.00
28167;BME280;15455;53.376;-6.262;2022-11-10T08:08:43;100462.06;;;13.27;100.00
28167;BME280;15455;53.376;-6.262;2022-11-10T08:11:48;100464.69;;;13.25;100.00
28167;BME280;15455;53.376;-6.262;2022-11-10T08:14:53;100461.22;;;13.25;100.00
28167;BME280;15455;53.376;-6.262;2022-11-10T08:18:16;100457.63;;;13.29;100.00
28167;BME280;15455;53.376;-6.262;2022-11-10T08:21:21;100452.34;;;13.35;100.00
28167;BME280;15455;53.376;-6.262;2022-11-10T08:24:25;100448.75;;;13.39;100.00
28167;BME280;15455;53.376;-6.262;2022-11-10T08:27:29;100458.28;;;13.43;100.00
28167;BME280;15455;53.376;-6.262;2022-11-10T08:30:35;100453.03;;;13.45;100.00
28167;BME280;15455;53.376;-6.262;2022-11-10T08:33:40;100456.47;;;13.47;100.00
28167;BME280;15455;53.376;-6.262;2022-11-10T08:36:44;100476.56;;;13.48;100.00
28167;BME280;15455;53.376;-6.262;2022-11-10T08:39:48;100466.09;;;13.46;100.00
28167;BME280;15455;53.376;-6.262;2022-11-10T08:43:00;100479.22;;;13.46;100.00
28167;BME280;15455;53.376;-6.262;2022-11-10T08:46:05;100491.34;;;13.52;100.00
28167;BME280;15455;53.376;-6.262;2022-11-10T08:49:09;100491.22;;;13.58;100.00
28167;BME280;15455;53.376;-6.262;2022-11-10T08:52:14;100477.97;;;13.64;100.00
28167;BME280;15455;53.376;-6.262;2022-11-10T08:55:18;100465.66;;;13.69;100.00
28167;BME280;15455;53.376;-6.262;2022-11-10T08:58:25;100472.53;;;13.73;100.00
28167;BME280;15455;53.376;-6.262;2022-11-10T09:01:29;100474.31;;;13.73;100.00
28167;BME280;15455;53.376;-6.262;2022-11-10T09:04:33;100491.75;;;13.76;100.00
28167;BME280;15455;53.376;-6.262;2022-11-10T09:07:45;100470.59;;;13.83;100.00
28167;BME280;15455;53.376;-6.262;2022-11-10T09:10:50;100470.53;;;13.86;100.00
28167;BME280;15455;53.376;-6.262;2022-11-10T09:13:54;100484.50;;;13.88;100.00
28167;BME280;15455;53.376;-6.262;2022-11-10T09:16:59;100485.22;;;13.97;100.00
28167;BME280;15455;53.376;-6.262;2022-11-10T09:20:04;100479.00;;;14.01;100.00
28167;BME280;15455;53.376;-6.262;2022-11-10T09:23:14;100482.41;;;14.06;100.00
28167;BME280;15455;53.376;-6.262;2022-11-10T09:26:19;100471.69;;;14.15;100.00
28167;BME280;15455;53.376;-6.262;2022-11-10T09:29:23;100462.16;;;14.13;100.00
28167;BME280;15455;53.376;-6.262;2022-11-10T09:32:28;100495.38;;;14.12;100.00
28167;BME280;15455;53.376;-6.262;2022-11-10T09:35:35;100490.06;;;14.15;100.00
28167;BME280;15455;53.376;-6.262;2022-11-10T09:38:39;100502.38;;;14.13;100.00
28167;BME280;15455;53.376;-6.262;2022-11-10T09:41:44;100505.13;;;14.07;100.00
28167;BME280;15455;53.376;-6.262;2022-11-10T09:44:53;100499.09;;;14.02;100.00
28167;BME280;15455;53.376;-6.262;2022-11-10T09:48:10;100531.50;;;13.99;100.00
28167;BME280;15455;53.376;-6.262;2022-11-10T09:51:22;100528.09;;;13.96;100.00
28167;BME280;15455;53.376;-6.262;2022-11-10T09:57:55;100544.78;;;13.92;100.00
28167;BME280;15455;53.376;-6.262;2022-11-10T10:01:19;100552.69;;;13.90;100.00
28167;BME280;15455;53.376;-6.262;2022-11-10T10:04:56;100528.19;;;13.91;100.00
28167;BME280;15455;53.376;-6.262;2022-11-10T10:08:06;100536.75;;;13.99;100.00
28167;BME280;15455;53.376;-6.262;2022-11-10T10:12:09;100520.94;;;14.04;100.00
28167;BME280;15455;53.376;-6.262;2022-11-10T10:14:56;100519.03;;;14.11;100.00
28167;BME280;15455;53.376;-6.262;2022-11-10T10:25:15;100522.91;;;14.35;100.00
28167;BME280;15455;53.376;-6.262;2022-11-10T10:31:43;100544.75;;;14.35;100.00
28167;BME280;15455;53.376;-6.262;2022-11-10T10:34:50;100540.34;;;14.37;100.00
28167;BME280;15455;53.376;-6.262;2022-11-10T10:37:55;100543.75;;;14.41;100.00
28167;BME280;15455;53.376;-6.262;2022-11-10T10:41:10;100554.19;;;14.44;100.00
28167;BME280;15455;53.376;-6.262;2022-11-10T10:44:18;100535.88;;;14.41;100.00
28167;BME280;15455;53.376;-6.262;2022-11-10T10:47:35;100538.41;;;14.46;100.00
28167;BME280;15455;53.376;-6.262;2022-11-10T10:50:41;100536.50;;;14.52;100.00
28167;BME280;15455;53.376;-6.262;2022-11-10T10:53:46;100530.13;;;14.66;100.00
28167;BME280;15455;53.376;-6.262;2022-11-10T10:57:00;100537.72;;;14.78;100.00
28167;BME280;15455;53.376;-6.262;2022-11-10T11:00:22;100522.63;;;14.88;100.00
28167;BME280;15455;53.376;-6.262;2022-11-10T11:03:29;100525.19;;;14.89;100.00
28167;BME280;15455;53.376;-6.262;2022-11-10T11:07:03;100533.28;;;14.80;100.00
28167;BME280;15455;53.376;-6.262;2022-11-10T11:10:33;100530.88;;;14.71;100.00
28167;BME280;15455;53.376;-6.262;2022-11-10T11:13:37;100532.66;;;14.69;100.00
28167;BME280;15455;53.376;-6.262;2022-11-10T11:17:12;100518.44;;;14.79;100.00
28167;BME280;15455;53.376;-6.262;2022-11-10T11:20:17;100527.78;;;14.91;100.00
28167;BME280;15455;53.376;-6.262;2022-11-10T11:30:00;100506.63;;;14.97;100.00
28167;BME280;15455;53.376;-6.262;2022-11-10T12:00:20;100525.41;;;15.16;100.00
28167;BME280;15455;53.376;-6.262;2022-11-10T12:03:39;100533.00;;;15.28;100.00
28167;BME280;15455;53.376;-6.262;2022-11-10T12:13:23;100520.69;;;15.63;100.00
28167;BME280;15455;53.376;-6.262;2022-11-10T12:16:34;100529.31;;;15.69;100.00
28167;BME280;15455;53.376;-6.262;2022-11-10T12:19:48;100519.47;;;15.75;100.00
28167;BME280;15455;53.376;-6.262;2022-11-10T12:23:08;100538.03;;;15.71;100.00
28167;BME280;15455;53.376;-6.262;2022-11-10T12:30:08;100516.81;;;15.77;100.00
28167;BME280;15455;53.376;-6.262;2022-11-10T12:33:38;100506.28;;;15.77;100.00
28167;BME280;15455;53.376;-6.262;2022-11-10T12:36:46;100513.59;;;15.67;100.00
28167;BME280;15455;53.376;-6.262;2022-11-10T12:39:59;100512.69;;;15.67;100.00
28167;BME280;15455;53.376;-6.262;2022-11-10T12:46:49;100518.00;;;15.65;100.00
28167;BME280;15455;53.376;-6.262;2022-11-10T12:50:02;100523.50;;;15.57;100.00
28167;BME280;15455;53.376;-6.262;2022-11-10T12:53:11;100515.00;;;15.46;100.00
28167;BME280;15455;53.376;-6.262;2022-11-10T12:56:36;100515.09;;;15.43;100.00
28167;BME280;15455;53.376;-6.262;2022-11-10T13:03:01;100501.53;;;15.58;100.00
28167;BME280;15455;53.376;-6.262;2022-11-10T13:06:30;100490.19;;;15.56;100.00
28167;BME280;15455;53.376;-6.262;2022-11-10T13:09:41;100503.25;;;15.59;100.00
28167;BME280;15455;53.376;-6.262;2022-11-10T13:16:08;100504.63;;;15.41;100.00
28167;BME280;15455;53.376;-6.262;2022-11-10T13:22:29;100516.94;;;15.39;100.00
28167;BME280;15455;53.376;-6.262;2022-11-10T13:31:54;100540.75;;;15.33;100.00
28167;BME280;15455;53.376;-6.262;2022-11-10T13:38:42;100515.28;;;15.35;100.00
28167;BME280;15455;53.376;-6.262;2022-11-10T13:52:00;100529.31;;;15.36;100.00
28167;BME280;15455;53.376;-6.262;2022-11-10T13:58:52;100512.94;;;15.24;100.00
28167;BME280;15455;53.376;-6.262;2022-11-10T14:05:57;100507.69;;;15.24;100.00
28167;BME280;15455;53.376;-6.262;2022-11-10T14:12:40;100518.97;;;15.28;100.00
28167;BME280;15455;53.376;-6.262;2022-11-10T14:15:48;100511.00;;;15.33;100.00
28167;BME280;15455;53.376;-6.262;2022-11-10T14:18:57;100521.50;;;15.33;100.00
28167;BME280;15455;53.376;-6.262;2022-11-10T14:22:19;100536.31;;;15.35;100.00
28167;BME280;15455;53.376;-6.262;2022-11-10T14:25:34;100541.66;;;15.32;100.00
28167;BME280;15455;53.376;-6.262;2022-11-10T14:28:39;100552.31;;;15.27;100.00
28167;BME280;15455;53.376;-6.262;2022-11-10T14:31:43;100540.97;;;15.25;100.00
28167;BME280;15455;53.376;-6.262;2022-11-10T14:34:50;100555.06;;;15.23;100.00
28167;BME280;15455;53.376;-6.262;2022-11-10T14:37:59;100547.19;;;15.21;100.00
28167;BME280;15455;53.376;-6.262;2022-11-10T14:41:05;100565.69;;;15.18;100.00
28167;BME280;15455;53.376;-6.262;2022-11-10T14:44:24;100558.84;;;15.11;100.00
28167;BME280;15455;53.376;-6.262;2022-11-10T14:47:30;100582.59;;;15.06;100.00
28167;BME280;15455;53.376;-6.262;2022-11-10T14:50:34;100578.34;;;15.02;100.00
28167;BME280;15455;53.376;-6.262;2022-11-10T14:53:50;100588.94;;;14.98;100.00
28167;BME280;15455;53.376;-6.262;2022-11-10T14:56:55;100586.41;;;14.93;100.00
28167;BME280;15455;53.376;-6.262;2022-11-10T15:00:05;100577.84;;;14.86;100.00
28167;BME280;15455;53.376;-6.262;2022-11-10T15:03:18;100567.31;;;14.85;100.00
28167;BME280;15455;53.376;-6.262;2022-11-10T15:06:24;100563.09;;;14.79;100.00
28167;BME280;15455;53.376;-6.262;2022-11-10T15:09:31;100569.38;;;14.73;100.00
28167;BME280;15455;53.376;-6.262;2022-11-10T15:12:36;100548.38;;;14.72;100.00
28167;BME280;15455;53.376;-6.262;2022-11-10T15:15:45;100554.53;;;14.71;100.00
28167;BME280;15455;53.376;-6.262;2022-11-10T15:18:50;100544.88;;;14.71;100.00
28167;BME280;15455;53.376;-6.262;2022-11-10T15:22:13;100533.47;;;14.72;100.00
28167;BME280;15455;53.376;-6.262;2022-11-10T15:25:22;100531.78;;;14.70;100.00
28167;BME280;15455;53.376;-6.262;2022-11-10T15:28:34;100539.69;;;14.68;100.00
28167;BME280;15455;53.376;-6.262;2022-11-10T15:31:42;100539.72;;;14.67;100.00
28167;BME280;15455;53.376;-6.262;2022-11-10T15:34:48;100562.44;;;14.69;100.00
28167;BME280;15455;53.376;-6.262;2022-11-10T15:38:23;100530.03;;;14.70;100.00
28167;BME280;15455;53.376;-6.262;2022-11-10T15:41:31;100535.28;;;14.70;100.00
28167;BME280;15455;53.376;-6.262;2022-11-10T15:44:36;100553.69;;;14.70;100.00
28167;BME280;15455;53.376;-6.262;2022-11-10T15:47:40;100549.31;;;14.69;100.00
28167;BME280;15455;53.376;-6.262;2022-11-10T15:50:47;100561.59;;;14.67;100.00
28167;BME280;15455;53.376;-6.262;2022-11-10T15:53:52;100566.00;;;14.67;100.00
28167;BME280;15455;53.376;-6.262;2022-11-10T15:56:57;100564.22;;;14.67;100.00
28167;BME280;15455;53.376;-6.262;2022-11-10T16:00:01;100566.00;;;14.67;100.00
28167;BME280;15455;53.376;-6.262;2022-11-10T16:03:09;100559.00;;;14.66;100.00
28167;BME280;15455;53.376;-6.262;2022-11-10T16:06:15;100560.72;;;14.68;100.00
28167;BME280;15455;53.376;-6.262;2022-11-10T16:09:20;100573.03;;;14.66;100.00
28167;BME280;15455;53.376;-6.262;2022-11-10T16:12:24;100567.75;;;14.68;100.00
28167;BME280;15455;53.376;-6.262;2022-11-10T16:15:31;100568.63;;;14.67;100.00
28167;BME280;15455;53.376;-6.262;2022-11-10T16:18:35;100566.88;;;14.66;100.00
28167;BME280;15455;53.376;-6.262;2022-11-10T16:21:46;100580.97;;;14.63;100.00
28167;BME280;15455;53.376;-6.262;2022-11-10T16:24:51;100553.88;;;14.59;100.00
28167;BME280;15455;53.376;-6.262;2022-11-10T16:27:55;100563.59;;;14.54;100.00
28167;BME280;15455;53.376;-6.262;2022-11-10T16:30:59;100569.84;;;14.50;100.00
28167;BME280;15455;53.376;-6.262;2022-11-10T16:34:03;100565.50;;;14.48;100.00
28167;BME280;15455;53.376;-6.262;2022-11-10T16:37:10;100569.09;;;14.44;100.00
28167;BME280;15455;53.376;-6.262;2022-11-10T16:40:17;100578.75;;;14.43;100.00
28167;BME280;15455;53.376;-6.262;2022-11-10T16:43:23;100558.66;;;14.40;100.00
28167;BME280;15455;53.376;-6.262;2022-11-10T16:46:29;100569.19;;;14.39;100.00
28167;BME280;15455;53.376;-6.262;2022-11-10T16:49:34;100562.25;;;14.36;100.00
28167;BME280;15455;53.376;-6.262;2022-11-10T16:52:38;100556.94;;;14.39;100.00
28167;BME280;15455;53.376;-6.262;2022-11-10T16:55:43;100559.50;;;14.41;100.00
28167;BME280;15455;53.376;-6.262;2022-11-10T16:58:47;100557.75;;;14.43;100.00
28167;BME280;15455;53.376;-6.262;2022-11-10T17:01:53;100559.44;;;14.44;100.00
28167;BME280;15455;53.376;-6.262;2022-11-10T17:04:58;100549.00;;;14.41;100.00
28167;BME280;15455;53.376;-6.262;2022-11-10T17:08:03;100561.31;;;14.39;100.00
28167;BME280;15455;53.376;-6.262;2022-11-10T17:11:08;100547.28;;;14.41;100.00
28167;BME280;15455;53.376;-6.262;2022-11-10T17:14:13;100578.78;;;14.41;100.00
28167;BME280;15455;53.376;-6.262;2022-11-10T17:17:18;100559.50;;;14.41;100.00
28167;BME280;15455;53.376;-6.262;2022-11-10T17:20:29;100587.38;;;14.48;100.00
28167;BME280;15455;53.376;-6.262;2022-11-10T17:23:35;100589.09;;;14.49;100.00
28167;BME280;15455;53.376;-6.262;2022-11-10T17:26:40;100594.38;;;14.49;100.00
28167;BME280;15455;53.376;-6.262;2022-11-10T17:29:45;100585.63;;;14.47;100.00
28167;BME280;15455;53.376;-6.262;2022-11-10T17:32:50;100598.66;;;14.53;100.00
28167;BME280;15455;53.376;-6.262;2022-11-10T17:36:16;100587.22;;;14.56;100.00
28167;BME280;15455;53.376;-6.262;2022-11-10T17:39:21;100598.59;;;14.56;100.00